Time;durP1;ratioP1;P1;durP2;ratioP2;P2;SDS_P1;SDS_P2;PMS_P1;PMS_P2;Temp;Humidity;BMP_temperature;BMP_pressure;BME280_temperature;BME280_humidity;BME280_pressure;Samples;Min_cycle;Max_cycle;Signal;HPM_P1;HPM_P2
2023/07/09 00:01:20;;;;;;;19.60;15.88;;;;;;;;;;4972620;28;20218;-61
2023/07/09 00:03:48;;;;;;;22.27;15.93;;;;;;;;;;4973619;28;20210;-61
2023/07/09 00:06:13;;;;;;;22.13;16.05;;;;;;;;;;4973178;28;20559;-61
2023/07/09 00:08:40;;;;;;;18.30;14.55;;;;;;;;;;4971619;28;20617;-61
2023/07/09 00:11:05;;;;;;;19.33;15.77;;;;;;;;;;4955772;28;20210;-61
2023/07/09 00:13:30;;;;;;;18.20;15.68;;;;;;;;;;4973563;28;20214;-61
2023/07/09 00:15:57;;;;;;;18.35;14.27;;;;;;;;;;4972457;28;20210;-61
2023/07/09 00:18:22;;;;;;;21.92;15.25;;;;;;;;;;4955154;28;20222;-61
2023/07/09 00:20:48;;;;;;;19.63;13.45;;;;;;;;;;4973175;28;20214;-61
2023/07/09 00:23:13;;;;;;;18.75;12.60;;;;;;;;;;4972273;28;20760;-61
2023/07/09 00:25:43;;;;;;;17.20;11.50;;;;;;;;;;4973171;28;20210;-61
2023/07/09 00:28:12;;;;;;;16.02;11.38;;;;;;;;;;4972744;28;20206;-61
2023/07/09 00:30:37;;;;;;;13.25;9.52;;;;;;;;;;4972253;28;20229;-61
2023/07/09 00:33:04;;;;;;;12.68;9.63;;;;;;;;;;4972835;28;20268;-61
2023/07/09 00:35:30;;;;;;;12.27;9.00;;;;;;;;;;4973012;28;20454;-61
2023/07/09 00:38:00;;;;;;;13.18;8.90;;;;;;;;;;4972261;28;20225;-61
2023/07/09 00:40:25;;;;;;;14.30;8.63;;;;;;;;;;4972674;28;20217;-61
2023/07/09 00:42:52;;;;;;;13.05;8.07;;;;;;;;;;4972797;28;20217;-61
2023/07/09 00:45:18;;;;;;;10.70;8.68;;;;;;;;;;4971633;28;20202;-61
2023/07/09 00:47:44;;;;;;;12.75;9.10;;;;;;;;;;4972797;28;20272;-61
2023/07/09 00:50:13;;;;;;;11.73;8.70;;;;;;;;;;4954867;28;20667;-61
2023/07/09 00:52:40;;;;;;;23.88;9.40;;;;;;;;;;4954754;28;20273;-61
2023/07/09 00:55:07;;;;;;;12.32;8.25;;;;;;;;;;4954972;28;20362;-61
2023/07/09 00:57:32;;;;;;;12.07;8.23;;;;;;;;;;4954696;28;20217;-61
2023/07/09 01:00:00;;;;;;;12.60;8.05;;;;;;;;;;4955252;28;20632;-61
2023/07/09 01:02:25;;;;;;;11.50;8.10;;;;;;;;;;4954856;28;20214;-61
2023/07/09 01:04:53;;;;;;;11.48;7.93;;;;;;;;;;4957993;28;20224;-61
2023/07/09 01:07:19;;;;;;;15.38;8.88;;;;;;;;;;4971975;28;20346;-61
2023/07/09 01:09:45;;;;;;;14.20;9.05;;;;;;;;;;4972519;28;20225;-61
2023/07/09 01:12:10;;;;;;;13.20;8.52;;;;;;;;;;4971096;28;20221;-61
2023/07/09 01:14:35;;;;;;;13.32;8.50;;;;;;;;;;4972067;28;20249;-61
2023/07/09 01:17:01;;;;;;;13.05;8.23;;;;;;;;;;4971864;28;20218;-61
2023/07/09 01:19:28;;;;;;;12.85;8.27;;;;;;;;;;4940072;28;20269;-61
2023/07/09 01:21:55;;;;;;;13.05;8.20;;;;;;;;;;4962435;28;20222;-61
2023/07/09 01:24:47;;;;;;;11.55;8.40;;;;;;;;;;4949565;28;20299;-61
2023/07/09 01:27:13;;;;;;;12.43;9.02;;;;;;;;;;4954748;28;20769;-61
2023/07/09 01:29:38;;;;;;;12.00;7.80;;;;;;;;;;4936875;28;20699;-61
2023/07/09 01:32:06;;;;;;;14.32;8.40;;;;;;;;;;4955184;28;20226;-60
2023/07/09 01:34:31;;;;;;;11.68;7.78;;;;;;;;;;4959972;28;20288;-61
2023/07/09 01:36:58;;;;;;;11.38;7.97;;;;;;;;;;4950643;28;20333;-61
2023/07/09 01:39:24;;;;;;;14.00;8.05;;;;;;;;;;4944557;28;20674;-61
2023/07/09 01:41:49;;;;;;;13.00;8.18;;;;;;;;;;4944126;28;20210;-61
2023/07/09 01:44:15;;;;;;;14.70;8.43;;;;;;;;;;4944275;28;20222;-61
2023/07/09 01:46:41;;;;;;;11.95;7.53;;;;;;;;;;4943901;28;20698;-61
2023/07/09 01:49:07;;;;;;;11.68;7.97;;;;;;;;;;4960811;28;20277;-61
2023/07/09 01:51:32;;;;;;;12.98;8.68;;;;;;;;;;4955558;28;20384;-61
2023/07/09 01:53:59;;;;;;;10.20;8.43;;;;;;;;;;4949471;28;20590;-61
2023/07/09 01:56:25;;;;;;;12.60;8.63;;;;;;;;;;4957335;28;20217;-61
2023/07/09 01:58:50;;;;;;;15.20;8.80;;;;;;;;;;4963198;28;20232;-61
2023/07/09 02:01:16;;;;;;;12.65;8.63;;;;;;;;;;4962559;28;20217;-61
2023/07/09 02:03:42;;;;;;;12.90;8.50;;;;;;;;;;4963329;28;20206;-61
2023/07/09 02:06:09;;;;;;;13.57;9.50;;;;;;;;;;4962456;28;20273;-61
2023/07/09 02:08:34;;;;;;;15.15;9.18;;;;;;;;;;4960285;28;20225;-61
2023/07/09 02:11:00;;;;;;;15.50;10.25;;;;;;;;;;4962629;28;20264;-61
2023/07/09 02:13:25;;;;;;;12.27;9.48;;;;;;;;;;4956265;28;20258;-61
2023/07/09 02:15:50;;;;;;;17.58;10.15;;;;;;;;;;4940257;28;20206;-61
2023/07/09 02:18:15;;;;;;;15.80;10.30;;;;;;;;;;4954157;28;20229;-61
2023/07/09 02:20:41;;;;;;;16.77;10.82;;;;;;;;;;4952381;28;20214;-61
2023/07/09 02:23:06;;;;;;;18.55;10.10;;;;;;;;;;4943029;28;20266;-61
2023/07/09 02:25:32;;;;;;;16.02;11.13;;;;;;;;;;4944131;28;20301;-61
2023/07/09 02:27:58;;;;;;;15.50;10.70;;;;;;;;;;4955401;28;20222;-61
2023/07/09 02:30:23;;;;;;;15.38;10.32;;;;;;;;;;4961500;28;20225;-61
2023/07/09 02:32:48;;;;;;;16.52;10.40;;;;;;;;;;4950880;28;20221;-61
2023/07/09 02:35:14;;;;;;;14.52;9.70;;;;;;;;;;4939725;28;20530;-61
2023/07/09 02:37:39;;;;;;;16.70;10.75;;;;;;;;;;4935181;28;20321;-61
2023/07/09 02:40:05;;;;;;;15.20;10.18;;;;;;;;;;4953992;28;20435;-62
2023/07/09 02:42:30;;;;;;;14.68;10.32;;;;;;;;;;4959562;28;20209;-61
2023/07/09 02:44:55;;;;;;;13.63;10.20;;;;;;;;;;4957594;28;20690;-61
2023/07/09 02:47:20;;;;;;;13.80;10.48;;;;;;;;;;4943574;28;20218;-61
2023/07/09 02:49:46;;;;;;;14.30;10.35;;;;;;;;;;4944132;28;20361;-61
2023/07/09 02:52:11;;;;;;;15.60;10.27;;;;;;;;;;4942784;28;20221;-61
2023/07/09 02:54:36;;;;;;;16.52;10.30;;;;;;;;;;4943938;28;20627;-61
2023/07/09 02:57:02;;;;;;;15.30;10.27;;;;;;;;;;4940591;28;20230;-62
2023/07/09 02:59:29;;;;;;;15.77;10.57;;;;;;;;;;4936194;28;20736;-62
2023/07/09 03:01:54;;;;;;;13.23;10.13;;;;;;;;;;4954551;28;20231;-61
2023/07/09 03:04:21;;;;;;;13.07;10.70;;;;;;;;;;4955324;28;20218;-61
2023/07/09 03:06:46;;;;;;;14.70;10.25;;;;;;;;;;4962981;28;20218;-61
2023/07/09 03:09:11;;;;;;;15.18;9.82;;;;;;;;;;4954575;28;20220;-61
2023/07/09 03:11:37;;;;;;;15.77;10.93;;;;;;;;;;4943440;28;20210;-61
2023/07/09 03:14:03;;;;;;;16.42;10.27;;;;;;;;;;4961349;28;20283;-62
2023/07/09 03:16:29;;;;;;;16.05;10.55;;;;;;;;;;4943733;28;20206;-62
2023/07/09 03:18:54;;;;;;;15.48;10.68;;;;;;;;;;4961906;28;20236;-62
2023/07/09 03:21:20;;;;;;;15.70;10.35;;;;;;;;;;4955354;28;20224;-61
2023/07/09 03:23:45;;;;;;;12.90;10.05;;;;;;;;;;4954650;28;20300;-61
2023/07/09 03:26:10;;;;;;;17.10;10.73;;;;;;;;;;4953146;28;20694;-61
2023/07/09 03:28:36;;;;;;;15.07;9.63;;;;;;;;;;4945282;28;20230;-61
2023/07/09 03:31:01;;;;;;;16.40;10.82;;;;;;;;;;4942809;28;20765;-61
2023/07/09 03:33:26;;;;;;;15.35;10.30;;;;;;;;;;4942809;28;20226;-61
2023/07/09 03:35:52;;;;;;;17.23;10.73;;;;;;;;;;4943533;28;20220;-61
2023/07/09 03:38:17;;;;;;;18.02;10.80;;;;;;;;;;4943133;28;20218;-61
2023/07/09 03:40:43;;;;;;;15.80;10.95;;;;;;;;;;4961074;28;20313;-61
2023/07/09 03:43:08;;;;;;;15.75;10.10;;;;;;;;;;4957589;28;20308;-61
2023/07/09 03:45:34;;;;;;;18.23;10.80;;;;;;;;;;4944637;28;20235;-61
2023/07/09 03:47:59;;;;;;;16.50;10.75;;;;;;;;;;4941060;28;20218;-61
2023/07/09 03:50:24;;;;;;;14.25;10.50;;;;;;;;;;4958779;28;20260;-61
2023/07/09 03:52:50;;;;;;;15.68;10.10;;;;;;;;;;4950375;28;20222;-61
2023/07/09 03:55:15;;;;;;;14.45;10.18;;;;;;;;;;4945517;28;20233;-61
2023/07/09 03:57:40;;;;;;;15.77;10.82;;;;;;;;;;4953651;28;20580;-61
2023/07/09 04:00:10;;;;;;;13.88;10.32;;;;;;;;;;4965403;28;20596;-61
2023/07/09 04:02:35;;;;;;;15.82;9.88;;;;;;;;;;4965330;28;20206;-61
2023/07/09 04:05:00;;;;;;;14.18;10.35;;;;;;;;;;4962476;28;20209;-61
2023/07/09 04:07:25;;;;;;;16.50;10.52;;;;;;;;;;4957191;28;20221;-61
2023/07/09 04:09:51;;;;;;;15.73;10.45;;;;;;;;;;4944900;28;20219;-61
2023/07/09 04:12:16;;;;;;;15.95;10.43;;;;;;;;;;4941166;28;20253;-61
2023/07/09 04:14:41;;;;;;;13.50;9.55;;;;;;;;;;4945720;28;20225;-61
2023/07/09 04:17:07;;;;;;;13.63;9.90;;;;;;;;;;4945731;28;20348;-61
2023/07/09 04:19:32;;;;;;;15.55;10.38;;;;;;;;;;4946513;28;20285;-62
2023/07/09 04:21:57;;;;;;;16.25;10.40;;;;;;;;;;4945923;28;20588;-61
2023/07/09 04:24:23;;;;;;;13.93;9.95;;;;;;;;;;4960621;28;20217;-61
2023/07/09 04:26:48;;;;;;;14.10;10.32;;;;;;;;;;4962471;28;20245;-61
2023/07/09 04:29:13;;;;;;;13.93;9.77;;;;;;;;;;4937299;28;20086;-61
2023/07/09 04:31:39;;;;;;;13.68;9.85;;;;;;;;;;4937432;28;20309;-61
2023/07/09 04:34:05;;;;;;;13.82;9.80;;;;;;;;;;4937864;28;20190;-61
2023/07/09 04:36:31;;;;;;;15.15;10.07;;;;;;;;;;4944983;28;20297;-61
2023/07/09 04:38:56;;;;;;;15.65;9.75;;;;;;;;;;4946066;28;20235;-61
2023/07/09 04:41:21;;;;;;;14.13;10.40;;;;;;;;;;4945435;28;20618;-61
2023/07/09 04:43:47;;;;;;;17.10;10.13;;;;;;;;;;4945250;28;20623;-61
2023/07/09 04:46:12;;;;;;;14.63;9.90;;;;;;;;;;4945282;28;20226;-61
2023/07/09 04:48:38;;;;;;;14.88;10.43;;;;;;;;;;4945773;28;20212;-62
2023/07/09 04:51:03;;;;;;;13.45;9.90;;;;;;;;;;4939949;28;20671;-61
2023/07/09 04:53:29;;;;;;;13.05;9.68;;;;;;;;;;4938118;28;20218;-61
2023/07/09 04:55:55;;;;;;;12.07;9.35;;;;;;;;;;4956502;28;20751;-61
2023/07/09 04:58:20;;;;;;;14.30;10.05;;;;;;;;;;4960623;28;20583;-61
2023/07/09 05:00:45;;;;;;;13.43;9.95;;;;;;;;;;4964969;28;20622;-61
2023/07/09 05:03:11;;;;;;;15.65;10.15;;;;;;;;;;4963055;28;20214;-61
2023/07/09 05:05:44;;;;;;;13.57;9.35;;;;;;;;;;4963470;28;20268;-62
2023/07/09 05:08:09;;;;;;;14.27;9.95;;;;;;;;;;4951845;28;20237;-63
2023/07/09 05:10:40;;;;;;;13.20;9.88;;;;;;;;;;4945407;28;20215;-63
2023/07/09 05:13:05;;;;;;;13.38;9.38;;;;;;;;;;4956213;28;20210;-63
2023/07/09 05:15:30;;;;;;;14.57;10.02;;;;;;;;;;4937778;28;20265;-62
2023/07/09 05:17:56;;;;;;;13.07;10.38;;;;;;;;;;4936992;28;20787;-63
2023/07/09 05:20:21;;;;;;;12.70;10.45;;;;;;;;;;4939672;28;20226;-62
2023/07/09 05:22:46;;;;;;;16.17;10.10;;;;;;;;;;4963944;28;20932;-61
2023/07/09 05:25:12;;;;;;;15.80;9.85;;;;;;;;;;4944143;28;20237;-61
2023/07/09 05:27:37;;;;;;;14.60;9.48;;;;;;;;;;4950391;28;20734;-61
2023/07/09 05:30:03;;;;;;;14.35;10.15;;;;;;;;;;4944280;28;20224;-61
2023/07/09 05:32:28;;;;;;;13.85;10.63;;;;;;;;;;4944449;28;20218;-60
2023/07/09 05:34:53;;;;;;;14.35;10.43;;;;;;;;;;4944517;28;20222;-61
2023/07/09 05:37:18;;;;;;;14.95;10.57;;;;;;;;;;4936854;28;20628;-61
2023/07/09 05:39:44;;;;;;;16.52;9.65;;;;;;;;;;4952555;28;20734;-61
2023/07/09 05:42:09;;;;;;;16.10;10.38;;;;;;;;;;4966754;28;20640;-61
2023/07/09 05:44:35;;;;;;;15.52;9.85;;;;;;;;;;4973813;28;20595;-61
2023/07/09 05:47:00;;;;;;;14.07;10.75;;;;;;;;;;4971871;28;20230;-61
2023/07/09 05:49:25;;;;;;;16.92;10.20;;;;;;;;;;4972553;28;20209;-63
2023/07/09 05:51:51;;;;;;;14.82;10.10;;;;;;;;;;4971593;28;20206;-65
2023/07/09 05:54:18;;;;;;;15.80;11.30;;;;;;;;;;4970468;28;20736;-65
2023/07/09 05:56:43;;;;;;;16.40;10.60;;;;;;;;;;4971666;28;20244;-65
2023/07/09 05:59:09;;;;;;;15.05;10.43;;;;;;;;;;4970991;28;20891;-65
2023/07/09 06:01:35;;;;;;;14.95;10.15;;;;;;;;;;4971009;28;20261;-63
2023/07/09 06:04:00;;;;;;;20.08;11.10;;;;;;;;;;4971070;28;20214;-63
2023/07/09 06:06:26;;;;;;;13.10;10.80;;;;;;;;;;4971420;28;20218;-63
2023/07/09 06:08:51;;;;;;;17.40;11.13;;;;;;;;;;4970638;28;20205;-63
2023/07/09 06:11:17;;;;;;;14.52;11.73;;;;;;;;;;4969786;28;20222;-63
2023/07/09 06:13:43;;;;;;;17.13;12.00;;;;;;;;;;4971470;28;20226;-63
2023/07/09 06:16:08;;;;;;;14.98;11.45;;;;;;;;;;4969705;28;20249;-64
2023/07/09 06:18:33;;;;;;;15.88;11.00;;;;;;;;;;4971473;28;20261;-63
2023/07/09 06:20:59;;;;;;;16.65;12.18;;;;;;;;;;4970247;28;20256;-63
2023/07/09 06:23:25;;;;;;;16.67;12.40;;;;;;;;;;4970903;28;20202;-64
2023/07/09 06:25:51;;;;;;;16.85;13.45;;;;;;;;;;4971454;28;20673;-64
2023/07/09 06:28:16;;;;;;;20.30;14.48;;;;;;;;;;4969656;28;20691;-64
2023/07/09 06:30:42;;;;;;;18.67;13.82;;;;;;;;;;4971156;28;20226;-63
2023/07/09 06:33:07;;;;;;;17.63;12.85;;;;;;;;;;4970567;28;20268;-64
2023/07/09 06:35:32;;;;;;;20.33;13.68;;;;;;;;;;4970067;28;20221;-63
2023/07/09 06:37:58;;;;;;;21.95;13.25;;;;;;;;;;4970989;28;20647;-63
2023/07/09 06:40:24;;;;;;;16.73;13.15;;;;;;;;;;4970171;28;20225;-63
2023/07/09 06:42:50;;;;;;;17.35;13.18;;;;;;;;;;4970348;28;20224;-63
2023/07/09 06:45:15;;;;;;;22.17;14.23;;;;;;;;;;4970234;28;20214;-63
2023/07/09 06:47:40;;;;;;;16.98;13.10;;;;;;;;;;4967773;28;20210;-63
2023/07/09 06:50:06;;;;;;;16.48;12.73;;;;;;;;;;4950390;29;20242;-63
2023/07/09 06:52:31;;;;;;;22.17;13.88;;;;;;;;;;4954012;28;20206;-63
2023/07/09 06:54:56;;;;;;;17.17;13.02;;;;;;;;;;4951608;29;20219;-63
2023/07/09 06:57:22;;;;;;;16.60;12.60;;;;;;;;;;4950387;29;20213;-63
2023/07/09 06:59:47;;;;;;;18.20;12.70;;;;;;;;;;4951391;29;20222;-63
2023/07/09 07:02:12;;;;;;;16.27;12.82;;;;;;;;;;4951179;29;20250;-63
2023/07/09 07:04:38;;;;;;;20.25;12.63;;;;;;;;;;4950873;29;20221;-63
2023/07/09 07:07:03;;;;;;;16.08;13.07;;;;;;;;;;4950864;29;20218;-64
2023/07/09 07:09:28;;;;;;;19.33;12.90;;;;;;;;;;4960982;28;20228;-64
2023/07/09 07:11:54;;;;;;;20.08;13.40;;;;;;;;;;4970040;28;20221;-64
2023/07/09 07:14:19;;;;;;;16.77;12.60;;;;;;;;;;4969976;28;20253;-64
2023/07/09 07:16:44;;;;;;;18.77;13.50;;;;;;;;;;4970794;28;20614;-64
2023/07/09 07:19:10;;;;;;;17.35;12.00;;;;;;;;;;4969228;28;20257;-63
2023/07/09 07:21:35;;;;;;;19.23;13.02;;;;;;;;;;4970630;28;20222;-63
2023/07/09 07:24:00;;;;;;;17.73;13.55;;;;;;;;;;4970800;28;20218;-63
2023/07/09 07:26:25;;;;;;;15.50;11.57;;;;;;;;;;4969556;28;20214;-64
2023/07/09 07:28:51;;;;;;;16.25;12.70;;;;;;;;;;4974310;28;20716;-63
2023/07/09 07:31:17;;;;;;;17.00;12.85;;;;;;;;;;4973054;28;20221;-64
2023/07/09 07:33:42;;;;;;;18.35;12.60;;;;;;;;;;4974185;28;20222;-63
2023/07/09 07:36:07;;;;;;;15.93;12.45;;;;;;;;;;4973651;28;20229;-63
2023/07/09 07:38:33;;;;;;;15.88;12.13;;;;;;;;;;4973542;28;20437;-64
2023/07/09 07:40:58;;;;;;;16.38;12.35;;;;;;;;;;4974206;28;20678;-64
2023/07/09 07:43:23;;;;;;;17.40;12.18;;;;;;;;;;4973711;28;20221;-64
2023/07/09 07:45:49;;;;;;;16.77;11.73;;;;;;;;;;4973141;28;20285;-64
2023/07/09 07:48:14;;;;;;;17.77;12.75;;;;;;;;;;4973520;28;20218;-64
2023/07/09 07:50:40;;;;;;;18.33;11.93;;;;;;;;;;4973965;28;20206;-63
2023/07/09 07:53:07;;;;;;;17.35;12.15;;;;;;;;;;4972666;28;20217;-63
2023/07/09 07:55:33;;;;;;;17.55;12.07;;;;;;;;;;4973982;28;20715;-63
2023/07/09 07:57:58;;;;;;;16.50;11.65;;;;;;;;;;4973888;28;20218;-64
2023/07/09 08:00:23;;;;;;;16.60;12.52;;;;;;;;;;4972411;28;20229;-64
2023/07/09 08:02:49;;;;;;;17.27;11.27;;;;;;;;;;4973940;28;20205;-64
2023/07/09 08:05:14;;;;;;;16.00;11.50;;;;;;;;;;4973061;28;20213;-64
2023/07/09 08:07:39;;;;;;;15.38;11.90;;;;;;;;;;4972951;28;20206;-64
2023/07/09 08:10:05;;;;;;;16.90;10.35;;;;;;;;;;4973348;28;20214;-64
2023/07/09 08:12:30;;;;;;;15.23;10.15;;;;;;;;;;4973825;28;20351;-64
2023/07/09 08:14:56;;;;;;;17.05;10.90;;;;;;;;;;4972726;28;20712;-63
2023/07/09 08:17:21;;;;;;;15.00;10.75;;;;;;;;;;4973172;28;20610;-63
2023/07/09 08:19:48;;;;;;;14.77;10.63;;;;;;;;;;4973310;28;20229;-63
2023/07/09 08:22:14;;;;;;;15.45;10.63;;;;;;;;;;4972095;28;20214;-63
2023/07/09 08:24:39;;;;;;;14.63;10.88;;;;;;;;;;4972839;28;20217;-64
2023/07/09 08:27:06;;;;;;;15.68;10.98;;;;;;;;;;4967852;28;20675;-65
2023/07/09 08:29:31;;;;;;;16.02;10.05;;;;;;;;;;4954942;28;20240;-64
2023/07/09 08:31:56;;;;;;;15.90;10.05;;;;;;;;;;4972943;28;20599;-64
2023/07/09 08:34:21;;;;;;;14.45;10.60;;;;;;;;;;4972680;28;20930;-63
2023/07/09 08:36:47;;;;;;;16.58;10.00;;;;;;;;;;4972528;28;20217;-62
2023/07/09 08:39:13;;;;;;;22.63;10.85;;;;;;;;;;4972420;28;20226;-62
2023/07/09 08:41:42;;;;;;;14.80;10.45;;;;;;;;;;4972413;28;20226;-63
2023/07/09 08:44:13;;;;;;;14.20;10.00;;;;;;;;;;4954880;28;20681;-62
2023/07/09 08:46:47;;;;;;;14.55;9.40;;;;;;;;;;4970908;28;20300;-63
2023/07/09 08:49:14;;;;;;;12.63;9.68;;;;;;;;;;4970437;28;20217;-63
2023/07/09 08:51:40;;;;;;;15.13;9.13;;;;;;;;;;4964024;28;20232;-63
2023/07/09 08:54:09;;;;;;;13.20;10.07;;;;;;;;;;4954839;28;20941;-63
2023/07/09 08:56:34;;;;;;;12.32;9.13;;;;;;;;;;4954702;28;20210;-63
2023/07/09 08:59:01;;;;;;;11.77;8.30;;;;;;;;;;4972242;28;20336;-63
2023/07/09 09:01:28;;;;;;;11.88;8.90;;;;;;;;;;4972316;28;20218;-63
2023/07/09 09:03:54;;;;;;;13.02;8.18;;;;;;;;;;4954733;28;20301;-63
2023/07/09 09:06:21;;;;;;;11.73;8.52;;;;;;;;;;4954808;28;26119;-63
2023/07/09 09:08:51;;;;;;;14.98;8.98;;;;;;;;;;4955032;28;20622;-63
2023/07/09 09:11:18;;;;;;;14.43;8.95;;;;;;;;;;4953924;28;20748;-64
2023/07/09 09:13:43;;;;;;;13.48;8.93;;;;;;;;;;4972255;28;20601;-62
2023/07/09 09:16:24;;;;;;;14.40;8.70;;;;;;;;;;4971481;28;20228;-62
2023/07/09 09:18:49;;;;;;;17.23;9.05;;;;;;;;;;4954238;28;20232;-63
2023/07/09 09:21:32;;;;;;;13.73;9.05;;;;;;;;;;4971820;28;20218;-62
2023/07/09 09:23:59;;;;;;;13.35;8.07;;;;;;;;;;4971547;28;20214;-62
2023/07/09 09:26:27;;;;;;;13.60;8.40;;;;;;;;;;4954575;28;20788;-60
2023/07/09 09:28:52;;;;;;;16.15;9.18;;;;;;;;;;4971220;28;20297;-60
2023/07/09 09:31:18;;;;;;;12.90;8.15;;;;;;;;;;4966675;28;20316;-60
2023/07/09 09:33:45;;;;;;;12.95;7.53;;;;;;;;;;4953470;28;20571;-60
2023/07/09 09:36:14;;;;;;;15.68;8.23;;;;;;;;;;4943622;28;20206;-61
2023/07/09 09:38:39;;;;;;;11.05;7.63;;;;;;;;;;4940876;28;20300;-62
2023/07/09 09:41:04;;;;;;;15.18;8.60;;;;;;;;;;4948929;28;20214;-61
2023/07/09 09:43:32;;;;;;;12.70;7.85;;;;;;;;;;4965385;28;20225;-61
2023/07/09 09:45:57;;;;;;;15.80;9.20;;;;;;;;;;4952622;28;20210;-60
2023/07/09 09:48:29;;;;;;;13.05;8.20;;;;;;;;;;4941181;28;20219;-62
2023/07/09 09:50:57;;;;;;;11.07;7.78;;;;;;;;;;4952823;28;20669;-60
2023/07/09 09:53:23;;;;;;;13.68;7.40;;;;;;;;;;4945028;28;20547;-61
2023/07/09 09:55:49;;;;;;;11.38;7.20;;;;;;;;;;4943429;28;20210;-61
2023/07/09 09:58:15;;;;;;;12.98;7.50;;;;;;;;;;4939930;28;20229;-61
2023/07/09 10:00:40;;;;;;;11.02;7.07;;;;;;;;;;4958070;28;20236;-62
2023/07/09 10:03:06;;;;;;;11.68;7.93;;;;;;;;;;4960781;28;20221;-61
2023/07/09 10:05:33;;;;;;;12.25;8.25;;;;;;;;;;4946840;28;20682;-62
2023/07/09 10:08:03;;;;;;;10.02;7.57;;;;;;;;;;4940571;28;20281;-62
2023/07/09 10:10:29;;;;;;;9.75;7.30;;;;;;;;;;4928914;28;20562;-62
2023/07/09 10:13:00;;;;;;;12.70;7.88;;;;;;;;;;4953814;28;20685;-61
2023/07/09 10:15:26;;;;;;;11.18;7.30;;;;;;;;;;4938888;28;20236;-62
2023/07/09 10:18:10;;;;;;;12.40;7.53;;;;;;;;;;4970053;28;20250;-61
2023/07/09 10:20:38;;;;;;;12.52;7.70;;;;;;;;;;4970142;28;20229;-61
2023/07/09 10:23:12;;;;;;;9.75;7.05;;;;;;;;;;4953502;28;20678;-61
2023/07/09 10:25:40;;;;;;;16.58;7.60;;;;;;;;;;4971295;28;20211;-62
2023/07/09 10:28:24;;;;;;;12.13;7.13;;;;;;;;;;4952479;28;20206;-60
2023/07/09 10:30:56;;;;;;;12.65;7.97;;;;;;;;;;4969872;28;20434;-61
2023/07/09 10:33:24;;;;;;;14.07;7.68;;;;;;;;;;4970362;28;20654;-60
2023/07/09 10:35:55;;;;;;;12.45;8.18;;;;;;;;;;4953173;28;20558;-60
2023/07/09 10:38:25;;;;;;;10.57;7.22;;;;;;;;;;4952958;28;20233;-61
2023/07/09 10:40:52;;;;;;;10.75;6.93;;;;;;;;;;4968044;28;20288;-60
2023/07/09 10:43:20;;;;;;;16.00;7.90;;;;;;;;;;4949805;29;20214;-60
2023/07/09 10:45:47;;;;;;;11.93;7.00;;;;;;;;;;4969783;28;20237;-61
2023/07/09 10:48:14;;;;;;;13.52;7.30;;;;;;;;;;4969861;28;20245;-61
2023/07/09 10:50:41;;;;;;;10.05;6.75;;;;;;;;;;4972811;28;20210;-60
2023/07/09 10:53:36;;;;;;;10.95;6.65;;;;;;;;;;4952690;28;20671;-60
2023/07/09 10:56:04;;;;;;;10.23;6.25;;;;;;;;;;4968553;28;20225;-60
2023/07/09 10:58:40;;;;;;;7.88;5.75;;;;;;;;;;4953627;28;20217;-60
2023/07/09 11:01:05;;;;;;;11.63;6.25;;;;;;;;;;4952412;28;20648;-60
2023/07/09 11:03:34;;;;;;;11.52;6.68;;;;;;;;;;4973014;28;20229;-60
2023/07/09 11:05:59;;;;;;;13.20;6.80;;;;;;;;;;4956273;28;20241;-59
2023/07/09 11:08:27;;;;;;;12.68;6.60;;;;;;;;;;4956060;28;20244;-60
2023/07/09 11:10:53;;;;;;;9.77;6.40;;;;;;;;;;4972048;28;20224;-59
2023/07/09 11:13:30;;;;;;;8.88;6.00;;;;;;;;;;4973017;28;20214;-60
2023/07/09 11:15:56;;;;;;;10.43;5.90;;;;;;;;;;4968357;28;20223;-59
2023/07/09 11:18:22;;;;;;;10.85;5.55;;;;;;;;;;4992638;28;20213;-60
2023/07/09 11:20:54;;;;;;;10.27;5.30;;;;;;;;;;4976508;28;20213;-60
2023/07/09 11:23:22;;;;;;;10.07;5.50;;;;;;;;;;4972870;28;20232;-60
2023/07/09 11:25:49;;;;;;;9.23;6.00;;;;;;;;;;4993265;28;20244;-61
2023/07/09 11:28:14;;;;;;;9.98;6.10;;;;;;;;;;4974599;28;20248;-60
2023/07/09 11:30:49;;;;;;;10.60;5.63;;;;;;;;;;4973573;28;20257;-59
2023/07/09 11:33:16;;;;;;;10.27;5.88;;;;;;;;;;4973750;28;20218;-60
2023/07/09 11:35:47;;;;;;;11.27;5.93;;;;;;;;;;4974237;28;20213;-60
2023/07/09 11:38:15;;;;;;;10.43;5.45;;;;;;;;;;4972988;28;20225;-61
2023/07/09 11:40:48;;;;;;;10.77;5.28;;;;;;;;;;4956759;28;20230;-59
2023/07/09 11:43:25;;;;;;;9.43;5.20;;;;;;;;;;4973591;28;20252;-60
2023/07/09 11:45:50;;;;;;;10.75;5.30;;;;;;;;;;4972587;28;20704;-59
2023/07/09 11:48:22;;;;;;;9.38;5.00;;;;;;;;;;4956127;28;20221;-60
2023/07/09 11:50:48;;;;;;;8.50;5.05;;;;;;;;;;4956551;28;20636;-60
2023/07/09 11:53:31;;;;;;;9.60;4.60;;;;;;;;;;4955085;28;20234;-60
2023/07/09 11:55:56;;;;;;;9.30;4.95;;;;;;;;;;4953501;28;20740;-60
2023/07/09 11:58:22;;;;;;;9.40;4.93;;;;;;;;;;4972097;28;20256;-60
2023/07/09 12:00:48;;;;;;;8.88;4.72;;;;;;;;;;4971889;28;20226;-59
2023/07/09 12:03:17;;;;;;;7.60;4.10;;;;;;;;;;4972429;28;20325;-60
2023/07/09 12:05:42;;;;;;;9.70;4.80;;;;;;;;;;4954843;28;20214;-60
2023/07/09 12:08:07;;;;;;;12.35;4.90;;;;;;;;;;4955183;28;20218;-59
2023/07/09 12:10:33;;;;;;;11.43;5.30;;;;;;;;;;4954870;28;20209;-59
2023/07/09 12:12:59;;;;;;;9.65;4.93;;;;;;;;;;4971553;28;20217;-60
2023/07/09 12:15:26;;;;;;;7.82;4.43;;;;;;;;;;4971050;28;20705;-60
2023/07/09 12:17:59;;;;;;;8.95;4.30;;;;;;;;;;4972934;28;20217;-60
2023/07/09 12:20:25;;;;;;;7.82;4.95;;;;;;;;;;4971864;28;20221;-59
2023/07/09 12:22:50;;;;;;;7.68;4.43;;;;;;;;;;4973453;28;20228;-59
2023/07/09 12:25:24;;;;;;;9.15;4.30;;;;;;;;;;4972530;28;20226;-60
2023/07/09 12:27:49;;;;;;;6.45;4.45;;;;;;;;;;4955057;28;20225;-60
2023/07/09 12:30:14;;;;;;;9.10;4.80;;;;;;;;;;4972530;28;20226;-60
2023/07/09 12:32:46;;;;;;;8.35;4.40;;;;;;;;;;4973047;28;20286;-60
2023/07/09 12:35:12;;;;;;;8.05;4.30;;;;;;;;;;4971817;28;20220;-60
2023/07/09 12:37:37;;;;;;;10.02;4.85;;;;;;;;;;4973246;28;20238;-60
2023/07/09 12:40:03;;;;;;;10.20;4.90;;;;;;;;;;4972308;28;20659;-60
2023/07/09 12:42:35;;;;;;;7.07;4.40;;;;;;;;;;4971736;28;20218;-60
2023/07/09 12:45:00;;;;;;;8.55;4.47;;;;;;;;;;4973454;28;20244;-60
2023/07/09 12:47:26;;;;;;;9.25;4.57;;;;;;;;;;4973022;28;20213;-60
2023/07/09 12:49:51;;;;;;;7.03;4.93;;;;;;;;;;4971402;28;20225;-59
2023/07/09 12:52:19;;;;;;;9.55;4.25;;;;;;;;;;4959455;28;20221;-60
2023/07/09 12:54:51;;;;;;;9.30;4.25;;;;;;;;;;4972455;28;20301;-60
2023/07/09 12:57:17;;;;;;;6.97;4.55;;;;;;;;;;4972308;28;20221;-60
2023/07/09 12:59:42;;;;;;;7.65;4.10;;;;;;;;;;4955509;28;20280;-59
2023/07/09 13:02:27;;;;;;;7.93;5.00;;;;;;;;;;4954115;28;20681;-59
2023/07/09 13:05:00;;;;;;;9.45;4.85;;;;;;;;;;4955602;28;20217;-59
2023/07/09 13:07:29;;;;;;;7.65;4.72;;;;;;;;;;4972247;28;20729;-60
2023/07/09 13:09:55;;;;;;;14.52;4.95;;;;;;;;;;4971980;28;20608;-60
2023/07/09 13:12:20;;;;;;;12.00;5.10;;;;;;;;;;4972160;28;20272;-60
2023/07/09 13:14:52;;;;;;;8.70;4.55;;;;;;;;;;4972562;28;20669;-60
2023/07/09 13:17:17;;;;;;;7.43;4.65;;;;;;;;;;4970030;28;20209;-61
2023/07/09 13:19:43;;;;;;;8.27;4.60;;;;;;;;;;4971480;28;20229;-60
2023/07/09 13:22:10;;;;;;;9.75;5.13;;;;;;;;;;4970910;28;20214;-60
2023/07/09 13:24:35;;;;;;;9.73;5.25;;;;;;;;;;4953198;28;20209;-61
2023/07/09 13:29:57;;;;;;;9.40;4.43;;;;;;;;;;4951422;28;20280;-61
2023/07/09 13:32:22;;;;;;;8.27;4.70;;;;;;;;;;4943720;29;21100;-62
2023/07/09 13:34:47;;;;;;;7.45;4.55;;;;;;;;;;4918297;29;20237;-61
2023/07/09 13:37:13;;;;;;;8.57;4.80;;;;;;;;;;4935964;29;20314;-61
2023/07/09 13:39:40;;;;;;;8.30;4.57;;;;;;;;;;4937480;29;20226;-61
2023/07/09 13:42:06;;;;;;;10.60;4.85;;;;;;;;;;4942801;29;21329;-61
2023/07/09 13:44:32;;;;;;;7.43;4.63;;;;;;;;;;4926690;29;20296;-60
2023/07/09 13:46:57;;;;;;;6.57;4.07;;;;;;;;;;4944136;29;20674;-60
2023/07/09 13:49:23;;;;;;;6.57;4.35;;;;;;;;;;4943280;29;20211;-60
2023/07/09 13:51:50;;;;;;;9.07;4.60;;;;;;;;;;4944009;29;20508;-60
2023/07/09 13:54:24;;;;;;;8.70;4.50;;;;;;;;;;4943004;29;20215;-61
2023/07/09 13:56:49;;;;;;;9.35;4.85;;;;;;;;;;4937198;29;20217;-61
2023/07/09 13:59:16;;;;;;;8.40;4.90;;;;;;;;;;4936199;29;20230;-61
2023/07/09 14:01:41;;;;;;;8.77;5.22;;;;;;;;;;4938512;29;20210;-61
2023/07/09 14:04:08;;;;;;;13.13;5.22;;;;;;;;;;4943198;29;20693;-61
2023/07/09 14:06:33;;;;;;;8.70;5.55;;;;;;;;;;4928986;29;20232;-61
2023/07/09 14:08:59;;;;;;;8.10;5.80;;;;;;;;;;4945432;29;20214;-61
2023/07/09 14:11:24;;;;;;;10.02;5.78;;;;;;;;;;4945692;29;20217;-61
2023/07/09 14:13:50;;;;;;;8.48;5.32;;;;;;;;;;4929371;29;20686;-61
2023/07/09 14:16:15;;;;;;;12.02;5.30;;;;;;;;;;4945509;29;20214;-61
2023/07/09 14:18:40;;;;;;;8.68;5.50;;;;;;;;;;4941699;29;20555;-60
2023/07/09 14:21:09;;;;;;;11.73;6.40;;;;;;;;;;4938554;29;20218;-61
2023/07/09 14:23:35;;;;;;;15.30;7.60;;;;;;;;;;4922145;29;20312;-61
2023/07/09 14:26:00;;;;;;;18.20;7.32;;;;;;;;;;4941398;29;20222;-61